createdAt,value
2019-02-18T00:01:24.443Z,58.03
2019-02-18T00:06:26.196Z,54.10
2019-02-18T00:11:27.979Z,61.37
2019-02-18T00:16:29.869Z,69.97
2019-02-18T00:21:31.738Z,64.50
2019-02-18T00:26:33.476Z,67.37
2019-02-18T00:31:35.407Z,66.53
2019-02-18T00:36:37.291Z,57.33
2019-02-18T00:41:39.729Z,48.60
2019-02-18T00:46:41.569Z,55.13
2019-02-18T00:51:43.370Z,53.50
2019-02-18T00:56:45.334Z,58.10
2019-02-18T01:01:47.637Z,47.53
2019-02-18T01:06:49.440Z,52.20
2019-02-18T01:11:51.541Z,48.33
2019-02-18T01:16:53.358Z,48.83
2019-02-18T01:21:55.556Z,49.77
2019-02-18T01:26:57.348Z,54.73
2019-02-18T01:31:59.388Z,69.03
2019-02-18T01:37:01.204Z,56.50
2019-02-18T01:42:03.059Z,54.70
2019-02-18T01:47:04.842Z,65.17
2019-02-18T01:52:06.624Z,69.27
2019-02-18T01:57:08.405Z,66.53
2019-02-18T02:02:10.227Z,72.03
2019-02-18T02:07:12.539Z,64.63
2019-02-18T02:12:14.344Z,69.53
2019-02-18T02:17:16.117Z,64.43
2019-02-18T02:22:18.358Z,53.10
2019-02-18T02:27:20.160Z,66.67
2019-02-18T02:32:22.272Z,39.40
2019-02-18T02:37:24.072Z,54.83
2019-02-18T02:42:26.389Z,54.00
2019-02-18T02:47:28.600Z,48.70
2019-02-18T02:52:30.401Z,55.53
2019-02-18T02:57:32.614Z,48.90
2019-02-18T03:02:34.415Z,52.03
2019-02-18T03:07:36.900Z,55.37
2019-02-18T03:12:38.946Z,68.37
2019-02-18T03:17:41.056Z,42.47
2019-02-18T03:22:42.850Z,62.63
2019-02-18T03:27:45.483Z,51.73
2019-02-18T03:32:48.023Z,56.37
2019-02-18T03:37:50.301Z,54.83
2019-02-18T03:42:52.300Z,59.07
2019-02-18T03:47:54.343Z,52.90
2019-02-18T03:52:56.304Z,56.03
2019-02-18T03:57:58.512Z,51.03
2019-02-18T04:03:00.721Z,45.70
2019-02-18T04:08:02.625Z,55.93
2019-02-18T04:13:04.521Z,63.40
2019-02-18T04:18:06.658Z,53.03
2019-02-18T04:23:08.823Z,71.10
2019-02-18T04:28:10.523Z,57.30
2019-02-18T04:33:13.273Z,47.17
2019-02-18T04:38:15.957Z,54.87
2019-02-18T04:43:17.959Z,50.73
2019-02-18T04:48:19.750Z,53.33
2019-02-18T04:53:21.962Z,61.03
2019-02-18T04:58:23.762Z,39.30
2019-02-18T05:03:25.547Z,63.90
2019-02-18T05:08:27.750Z,64.93
2019-02-18T05:13:29.542Z,52.73
2019-02-18T05:18:31.743Z,41.30
2019-02-18T05:23:33.788Z,50.13
2019-02-18T05:28:35.531Z,51.70
2019-02-18T05:33:38.974Z,44.37
2019-02-18T05:38:40.739Z,52.47
2019-02-18T05:43:42.546Z,49.20
2019-02-18T05:48:44.508Z,64.47
2019-02-18T05:53:46.431Z,59.00
2019-02-18T05:58:48.505Z,54.57
2019-02-18T06:03:50.303Z,47.73
2019-02-18T06:08:52.093Z,54.93
2019-02-18T06:13:53.940Z,50.03
2019-02-18T06:18:55.746Z,44.37
2019-02-18T06:23:57.570Z,38.57
2019-02-18T06:28:59.267Z,54.57
2019-02-18T06:34:06.080Z,47.60
2019-02-18T06:39:11.691Z,58.90
2019-02-18T06:44:15.092Z,45.27
2019-02-18T06:49:17.188Z,59.53
2019-02-18T06:54:19.269Z,51.90
2019-02-18T06:59:22.915Z,48.57
2019-02-18T07:04:32.654Z,54.53
2019-02-18T07:09:36.219Z,49.70
2019-02-18T07:14:39.801Z,51.07
2019-02-18T07:19:42.379Z,47.37
2019-02-18T07:24:44.154Z,52.07
2019-02-18T07:29:46.363Z,46.70
2019-02-18T07:34:48.478Z,45.30
2019-02-18T07:39:50.279Z,59.40
2019-02-18T07:44:52.074Z,47.23
2019-02-18T07:49:53.869Z,52.27
2019-02-18T07:54:55.661Z,62.07
2019-02-18T07:59:58.081Z,43.80
2019-02-18T08:05:02.164Z,45.37
2019-02-18T08:10:12.067Z,46.87
2019-02-18T08:15:11.249Z,40.17
2019-02-18T08:20:12.996Z,45.40
2019-02-18T08:25:15.244Z,51.23
2019-02-18T08:30:17.346Z,55.33
2019-02-18T08:35:19.323Z,54.97
2019-02-18T08:40:26.313Z,62.93
2019-02-18T08:45:33.348Z,57.97
2019-02-18T08:50:35.124Z,51.00
2019-02-18T08:55:36.978Z,57.57
2019-02-18T09:00:38.723Z,56.23
2019-02-18T09:05:40.979Z,61.13
2019-02-18T09:10:42.879Z,56.47
2019-02-18T09:15:44.745Z,74.43
2019-02-18T09:20:46.495Z,56.40
2019-02-18T09:25:49.946Z,64.90
2019-02-18T09:30:56.169Z,60.73
2019-02-18T09:35:59.886Z,76.73
2019-02-18T09:41:10.741Z,57.80
2019-02-18T09:46:13.122Z,55.43
2019-02-18T09:51:14.880Z,60.10
2019-02-18T09:56:16.631Z,56.70
2019-02-18T10:01:18.431Z,55.10
2019-02-18T10:06:20.644Z,62.33
2019-02-18T10:11:22.754Z,52.20
2019-02-18T10:16:24.555Z,65.40
2019-02-18T10:21:26.769Z,47.40
2019-02-18T10:26:28.523Z,49.10
2019-02-18T10:31:30.234Z,45.33
2019-02-18T10:36:32.687Z,44.60
2019-02-18T10:41:34.451Z,63.13
2019-02-18T10:46:36.226Z,51.20
2019-02-18T10:51:37.974Z,55.87
2019-02-18T10:56:40.311Z,60.30
2019-02-18T11:01:42.108Z,39.00
2019-02-18T11:06:44.879Z,63.47
2019-02-18T11:11:46.850Z,46.07
2019-02-18T11:16:48.645Z,49.57
2019-02-18T11:21:50.439Z,43.90
2019-02-18T11:26:52.463Z,37.00
2019-02-18T11:31:54.179Z,47.70
2019-02-18T11:36:56.499Z,47.07
2019-02-18T11:41:58.765Z,59.80
2019-02-18T11:47:00.551Z,56.93
2019-02-18T11:52:02.336Z,55.67
2019-02-18T11:57:04.092Z,56.13
2019-02-18T12:02:05.839Z,55.27
2019-02-18T12:07:08.680Z,49.37
2019-02-18T12:12:11.026Z,43.00
2019-02-18T12:17:20.235Z,43.33
2019-02-18T12:22:16.769Z,45.70
2019-02-18T12:27:18.388Z,50.87
2019-02-18T12:32:20.124Z,53.63
2019-02-18T12:37:22.862Z,41.67
2019-02-18T12:42:24.668Z,23.77
2019-02-18T12:47:26.716Z,40.97
2019-02-18T12:52:28.518Z,37.60
2019-02-18T12:57:30.283Z,40.87
2019-02-18T13:02:43.346Z,39.97
2019-02-18T13:07:40.429Z,35.83
2019-02-18T13:12:42.271Z,48.13
2019-02-18T13:17:44.090Z,34.93
2019-02-18T13:22:46.124Z,35.80
2019-02-18T13:27:48.224Z,42.27
2019-02-18T13:32:50.033Z,43.50
2019-02-18T13:37:52.173Z,45.27
2019-02-18T13:42:53.985Z,48.77
2019-02-18T13:47:55.753Z,45.40
2019-02-18T13:52:57.541Z,41.03
2019-02-18T13:58:01.218Z,34.63
2019-02-18T14:03:03.587Z,32.07
2019-02-18T14:08:05.545Z,42.83
2019-02-18T14:13:07.227Z,35.77
2019-02-18T14:18:08.889Z,38.80
2019-02-18T14:23:11.080Z,33.03
2019-02-18T14:28:13.211Z,41.27
2019-02-18T14:33:14.990Z,51.80
2019-02-18T14:38:17.145Z,36.83
2019-02-18T14:43:18.951Z,20.70
2019-02-18T14:48:20.838Z,28.97
2019-02-18T14:53:25.951Z,33.37
2019-02-18T14:58:27.780Z,29.63
2019-02-18T15:03:30.271Z,17.43
2019-02-18T15:08:32.454Z,20.50
2019-02-18T15:13:34.641Z,21.97
2019-02-18T15:18:36.523Z,47.43
2019-02-18T15:28:56.762Z,27.60
2019-02-18T15:33:58.497Z,20.23
2019-02-18T15:39:04.491Z,29.10
2019-02-18T15:49:14.376Z,17.90
2019-02-18T15:54:16.028Z,19.73
2019-02-18T15:59:17.700Z,24.87
2019-02-18T16:04:19.438Z,24.80
2019-02-18T16:09:21.448Z,19.60
2019-02-18T16:14:23.707Z,26.93
2019-02-18T16:19:25.535Z,18.77
2019-02-18T16:24:27.810Z,25.07
2019-02-18T16:29:30.191Z,27.40
2019-02-18T16:34:31.900Z,33.07
2019-02-18T16:39:34.001Z,27.40
2019-02-18T16:44:36.421Z,33.30
2019-02-18T16:49:38.235Z,19.83
2019-02-18T16:54:40.355Z,22.77
2019-02-18T16:59:42.155Z,42.77
2019-02-18T17:04:43.974Z,30.73
2019-02-18T17:09:45.767Z,21.93
2019-02-18T17:14:48.319Z,26.30
2019-02-18T17:19:50.066Z,28.10
2019-02-18T17:24:52.137Z,26.33
2019-02-18T17:29:53.909Z,27.40
2019-02-18T17:34:56.097Z,26.00
2019-02-18T17:40:07.558Z,30.30
2019-02-18T17:45:11.954Z,30.73
2019-02-18T17:50:14.926Z,56.60
2019-02-18T17:55:18.180Z,42.10
2019-02-18T18:00:27.482Z,38.00
2019-02-18T18:05:29.815Z,56.00
2019-02-18T18:10:32.314Z,55.43
2019-02-18T18:15:34.478Z,65.27
2019-02-18T18:20:36.695Z,53.10
2019-02-18T18:25:38.539Z,55.30
2019-02-18T18:30:40.383Z,57.40
2019-02-18T18:35:42.190Z,68.10
2019-02-18T18:40:44.600Z,50.10
2019-02-18T18:45:47.337Z,55.73
2019-02-18T18:50:49.333Z,42.17
2019-02-18T18:55:51.547Z,44.63
2019-02-18T19:00:53.908Z,52.97
2019-02-18T19:05:55.879Z,49.37
2019-02-18T19:10:59.927Z,58.73
2019-02-18T19:16:02.378Z,64.27
2019-02-18T19:21:04.380Z,51.13
2019-02-18T19:26:06.326Z,50.73
2019-02-18T19:31:08.301Z,67.03
2019-02-18T19:36:10.108Z,62.50
2019-02-18T19:41:12.717Z,56.93
2019-02-18T19:46:14.653Z,52.83
2019-02-18T19:51:16.585Z,64.70
2019-02-18T19:56:18.945Z,76.60
2019-02-18T20:01:21.364Z,76.07
2019-02-18T20:06:24.883Z,60.80
2019-02-18T20:11:27.209Z,82.07
2019-02-18T20:16:29.219Z,70.47
2019-02-18T20:21:31.184Z,54.00
2019-02-18T20:26:33.358Z,74.50
2019-02-18T20:31:35.249Z,69.33
2019-02-18T20:36:37.622Z,54.20
2019-02-18T20:41:40.094Z,53.73
2019-02-18T20:46:42.124Z,65.57
2019-02-18T20:51:44.008Z,64.40
2019-02-18T20:56:46.520Z,65.57
2019-02-18T21:01:48.292Z,84.93
2019-02-18T21:06:50.120Z,67.80
2019-02-18T21:11:51.923Z,66.73
2019-02-18T21:16:53.726Z,65.83
2019-02-18T21:21:55.724Z,62.13
2019-02-18T21:26:57.524Z,74.70
2019-02-18T21:31:59.312Z,72.00
2019-02-18T21:37:01.098Z,81.27
2019-02-18T21:42:03.306Z,80.43
2019-02-18T21:47:05.590Z,56.60
2019-02-18T21:52:09.221Z,66.63
2019-02-18T21:57:10.916Z,69.10
2019-02-18T22:02:12.721Z,84.43
2019-02-18T22:07:14.520Z,75.67
2019-02-18T22:12:16.316Z,65.40
2019-02-18T22:17:18.546Z,88.10
2019-02-18T22:22:20.428Z,94.13
2019-02-18T22:27:23.037Z,85.43
2019-02-18T22:32:24.727Z,89.97
2019-02-18T22:37:26.609Z,81.43
2019-02-18T22:42:28.882Z,88.00
2019-02-18T22:47:30.658Z,93.97
2019-02-18T22:52:32.431Z,62.60
2019-02-18T22:57:34.292Z,56.70
2019-02-18T23:02:36.088Z,55.83
2019-02-18T23:07:38.303Z,47.10
2019-02-18T23:12:40.121Z,58.37
2019-02-18T23:17:41.907Z,52.87
2019-02-18T23:22:44.124Z,80.23
2019-02-18T23:27:45.823Z,53.80
2019-02-18T23:32:47.627Z,46.77
2019-02-18T23:37:49.756Z,55.03
2019-02-18T23:42:52.061Z,56.03
2019-02-18T23:47:53.825Z,43.93
2019-02-18T23:52:55.666Z,56.03
2019-02-18T23:57:57.984Z,65.60
